Time,TemperatureF,DewpointF,PressureIn,WindDirection,WindDirectionDegrees,WindSpeedMPH,WindSpeedGustMPH,Humidity,HourlyPrecipIn,Conditions,Clouds,dailyrainin,SoftwareType,DateUTC
2013-03-09 00:07:00,19.4,15.6,30.02,ESE,112,0.0,-999.0,85,-99.99,,,0.00,Acu-Link.com,2013-03-09 08:07:00,
2013-03-09 00:22:00,19.4,15.9,30.02,ESE,112,0.0,-999.0,86,-99.99,,,0.00,Acu-Link.com,2013-03-09 08:22:00,
2013-03-09 00:37:00,19.4,15.9,30.03,East,90,0.0,-999.0,86,-99.99,,,0.00,Acu-Link.com,2013-03-09 08:37:00,
2013-03-09 00:52:00,19.4,15.9,30.03,ESE,112,0.0,-999.0,86,-99.99,,,0.00,Acu-Link.com,2013-03-09 08:52:00,
2013-03-09 01:08:00,19.4,15.9,30.03,ESE,112,0.0,-999.0,86,-99.99,,,0.00,Acu-Link.com,2013-03-09 09:08:00,
2013-03-09 01:23:00,19.4,15.9,30.04,SW,225,0.0,-999.0,86,-99.99,,,0.00,Acu-Link.com,2013-03-09 09:23:00,
2013-03-09 01:38:00,19.4,15.9,30.04,SE,135,0.0,-999.0,86,-99.99,,,0.00,Acu-Link.com,2013-03-09 09:38:00,
2013-03-09 01:53:00,17.6,13.9,30.05,SSW,202,0.0,-999.0,85,-99.99,,,0.00,Acu-Link.com,2013-03-09 09:53:00,
2013-03-09 02:08:00,17.6,13.9,30.05,SE,135,0.0,-999.0,85,-99.99,,,0.00,Acu-Link.com,2013-03-09 10:08:00,
2013-03-09 02:23:00,17.6,14.1,30.05,SE,135,0.0,-999.0,86,-99.99,,,0.00,Acu-Link.com,2013-03-09 10:23:00,
2013-03-09 02:38:00,17.6,14.4,30.05,SE,135,0.0,-999.0,87,-99.99,,,0.00,Acu-Link.com,2013-03-09 10:38:00,
2013-03-09 02:53:00,17.6,14.1,30.06,ESE,112,0.0,-999.0,86,-99.99,,,0.00,Acu-Link.com,2013-03-09 10:53:00,
2013-03-09 03:09:00,17.6,13.9,30.06,ESE,112,0.0,-999.0,85,-99.99,,,0.00,Acu-Link.com,2013-03-09 11:09:00,
2013-03-09 03:24:00,17.6,14.1,30.06,ENE,67,0.0,-999.0,86,-99.99,,,0.00,Acu-Link.com,2013-03-09 11:24:00,
2013-03-09 03:39:00,17.6,14.1,30.06,South,180,0.0,-999.0,86,-99.99,,,0.00,Acu-Link.com,2013-03-09 11:39:00,
2013-03-09 03:54:00,17.6,14.1,30.06,SE,135,0.0,-999.0,86,-99.99,,,0.00,Acu-Link.com,2013-03-09 11:54:00,
2013-03-09 04:10:00,15.8,12.1,30.07,SE,135,0.0,-999.0,85,-99.99,,,0.00,Acu-Link.com,2013-03-09 12:10:00,
2013-03-09 04:25:00,15.8,12.4,30.07,ESE,112,0.0,-999.0,86,-99.99,,,0.00,Acu-Link.com,2013-03-09 12:25:00,
2013-03-09 04:40:00,15.8,12.6,30.08,SE,135,0.0,-999.0,87,-99.99,,,0.00,Acu-Link.com,2013-03-09 12:40:00,
2013-03-09 04:56:00,14.0,10.6,30.07,SE,135,0.0,-999.0,86,-99.99,,,0.00,Acu-Link.com,2013-03-09 12:56:00,
2013-03-09 05:11:00,14.0,10.3,30.07,SE,135,0.0,-999.0,85,-99.99,,,0.00,Acu-Link.com,2013-03-09 13:11:00,
2013-03-09 05:26:00,14.0,10.6,30.07,SE,135,0.0,-999.0,86,-99.99,,,0.00,Acu-Link.com,2013-03-09 13:26:00,
2013-03-09 05:41:00,14.0,10.9,30.08,SW,225,0.0,-999.0,87,-99.99,,,0.00,Acu-Link.com,2013-03-09 13:41:00,
2013-03-09 05:56:00,14.0,10.3,30.08,ESE,112,0.0,-999.0,85,-99.99,,,0.00,Acu-Link.com,2013-03-09 13:56:00,
2013-03-09 06:12:00,14.0,11.1,30.09,SE,135,0.0,-999.0,88,-99.99,,,0.00,Acu-Link.com,2013-03-09 14:12:00,
2013-03-09 06:27:00,14.0,11.1,30.09,ESE,112,0.0,-999.0,88,-99.99,,,0.00,Acu-Link.com,2013-03-09 14:27:00,
2013-03-09 06:42:00,14.0,11.1,30.09,SE,135,0.0,-999.0,88,-99.99,,,0.00,Acu-Link.com,2013-03-09 14:42:00,
2013-03-09 06:58:00,14.0,10.6,30.09,SE,135,0.0,-999.0,86,-99.99,,,0.00,Acu-Link.com,2013-03-09 14:58:00,
2013-03-09 07:13:00,14.0,10.6,30.08,SW,225,0.0,-999.0,86,-99.99,,,0.00,Acu-Link.com,2013-03-09 15:13:00,
2013-03-09 07:28:00,14.0,10.6,30.09,SSE,157,0.0,-999.0,86,-99.99,,,0.00,Acu-Link.com,2013-03-09 15:28:00,
2013-03-09 07:43:00,17.6,14.4,30.10,SE,135,0.0,-999.0,87,-99.99,,,0.00,Acu-Link.com,2013-03-09 15:43:00,
2013-03-09 07:58:00,17.6,14.1,30.10,ESE,112,0.0,-999.0,86,-99.99,,,0.00,Acu-Link.com,2013-03-09 15:58:00,
2013-03-09 08:13:00,19.4,15.9,30.10,South,180,0.0,-999.0,86,-99.99,,,0.00,Acu-Link.com,2013-03-09 16:13:00,
2013-03-09 08:29:00,21.2,17.4,30.10,SE,135,0.0,-999.0,85,-99.99,,,0.00,Acu-Link.com,2013-03-09 16:29:00,
2013-03-09 08:44:00,21.2,17.4,30.11,South,180,0.0,-999.0,85,-99.99,,,0.00,Acu-Link.com,2013-03-09 16:44:00,
2013-03-09 08:59:00,24.8,19.5,30.11,West,270,0.0,-999.0,80,-99.99,,,0.00,Acu-Link.com,2013-03-09 16:59:00,
2013-03-09 09:14:00,28.4,22.7,30.13,SSW,202,0.0,-999.0,79,-99.99,,,0.00,Acu-Link.com,2013-03-09 17:14:00,
2013-03-09 09:29:00,30.2,23.2,30.12,ESE,112,0.0,-999.0,75,-99.99,,,0.00,Acu-Link.com,2013-03-09 17:29:00,
2013-03-09 09:45:00,32.0,24.0,30.13,SSE,157,0.0,-999.0,72,-99.99,,,0.00,Acu-Link.com,2013-03-09 17:45:00,
2013-03-09 10:00:00,33.8,25.1,30.13,West,270,2.7,-999.0,70,-99.99,,,0.00,Acu-Link.com,2013-03-09 18:00:00,
2013-03-09 10:15:00,35.6,25.7,30.13,NNW,337,1.6,-999.0,67,-99.99,,,0.00,Acu-Link.com,2013-03-09 18:15:00,
2013-03-09 10:30:00,37.4,27.1,30.12,SE,135,1.6,-999.0,66,-99.99,,,0.00,Acu-Link.com,2013-03-09 18:30:00,
2013-03-09 10:45:00,37.4,27.1,30.12,ESE,112,0.0,-999.0,66,-99.99,,,0.00,Acu-Link.com,2013-03-09 18:45:00,
2013-03-09 11:00:00,37.4,26.4,30.12,NE,45,2.0,-999.0,64,-99.99,,,0.00,Acu-Link.com,2013-03-09 19:00:00,
2013-03-09 11:16:00,41.0,28.6,30.11,NNW,337,2.0,-999.0,61,-99.99,,,0.00,Acu-Link.com,2013-03-09 19:16:00,
2013-03-09 11:31:00,41.0,27.4,30.10,SE,135,2.0,-999.0,58,-99.99,,,0.00,Acu-Link.com,2013-03-09 19:31:00,
2013-03-09 11:46:00,41.0,27.4,30.11,SE,135,2.7,-999.0,58,-99.99,,,0.00,Acu-Link.com,2013-03-09 19:46:00,
2013-03-09 12:02:00,41.0,26.5,30.11,ESE,112,3.1,-999.0,56,-99.99,,,0.00,Acu-Link.com,2013-03-09 20:02:00,
2013-03-09 12:17:00,42.8,26.9,30.11,ESE,112,1.6,-999.0,53,-99.99,,,0.00,Acu-Link.com,2013-03-09 20:17:00,
2013-03-09 12:32:00,42.8,27.3,30.11,West,270,1.1,-999.0,54,-99.99,,,0.00,Acu-Link.com,2013-03-09 20:32:00,
2013-03-09 12:47:00,42.8,26.4,30.12,WNW,292,0.0,-999.0,52,-99.99,,,0.00,Acu-Link.com,2013-03-09 20:47:00,
2013-03-09 13:03:00,42.8,24.0,30.12,East,90,1.6,-999.0,47,-99.99,,,0.00,Acu-Link.com,2013-03-09 21:03:00,
2013-03-09 13:18:00,44.6,26.1,30.11,SE,135,2.0,-999.0,48,-99.99,,,0.00,Acu-Link.com,2013-03-09 21:18:00,
2013-03-09 13:33:00,44.6,26.6,30.10,ESE,112,2.7,-999.0,49,-99.99,,,0.00,Acu-Link.com,2013-03-09 21:33:00,
2013-03-09 13:48:00,46.4,26.2,30.10,SE,135,1.6,-999.0,45,-99.99,,,0.00,Acu-Link.com,2013-03-09 21:48:00,
2013-03-09 14:03:00,44.6,24.6,30.09,WSW,247,4.0,-999.0,45,-99.99,,,0.00,Acu-Link.com,2013-03-09 22:03:00,
2013-03-09 14:18:00,44.6,25.1,30.09,WSW,247,0.0,-999.0,46,-99.99,,,0.00,Acu-Link.com,2013-03-09 22:18:00,
2013-03-09 14:33:00,44.6,25.6,30.09,SW,225,3.1,-999.0,47,-99.99,,,0.00,Acu-Link.com,2013-03-09 22:33:00,
2013-03-09 14:48:00,44.6,25.6,30.09,SW,225,1.6,-999.0,47,-99.99,,,0.00,Acu-Link.com,2013-03-09 22:48:00,
2013-03-09 15:04:00,44.6,24.6,30.09,South,180,1.6,-999.0,45,-99.99,,,0.00,Acu-Link.com,2013-03-09 23:04:00,
2013-03-09 15:19:00,46.4,25.1,30.09,SSW,202,1.1,-999.0,43,-99.99,,,0.00,Acu-Link.com,2013-03-09 23:19:00,
2013-03-09 15:34:00,44.6,24.6,30.09,WNW,292,2.0,-999.0,45,-99.99,,,0.00,Acu-Link.com,2013-03-09 23:34:00,
2013-03-09 15:49:00,44.6,24.6,30.09,SSE,157,1.1,-999.0,45,-99.99,,,0.00,Acu-Link.com,2013-03-09 23:49:00,
2013-03-09 16:04:00,46.4,25.7,30.09,West,270,1.6,-999.0,44,-99.99,,,0.00,Acu-Link.com,2013-03-10 00:04:00,
2013-03-09 16:19:00,44.6,23.5,30.09,West,270,0.0,-999.0,43,-99.99,,,0.00,Acu-Link.com,2013-03-10 00:19:00,
2013-03-09 16:34:00,44.6,24.6,30.09,SE,135,0.0,-999.0,45,-99.99,,,0.00,Acu-Link.com,2013-03-10 00:34:00,
2013-03-09 16:49:00,44.6,25.1,30.09,NE,45,0.0,-999.0,46,-99.99,,,0.00,Acu-Link.com,2013-03-10 00:49:00,
2013-03-09 17:04:00,42.8,24.0,30.09,NW,315,0.0,-999.0,47,-99.99,,,0.00,Acu-Link.com,2013-03-10 01:04:00,
2013-03-09 17:20:00,42.8,24.0,30.09,East,90,0.0,-999.0,47,-99.99,,,0.00,Acu-Link.com,2013-03-10 01:20:00,
2013-03-09 17:35:00,42.8,25.0,30.10,ENE,67,0.0,-999.0,49,-99.99,,,0.00,Acu-Link.com,2013-03-10 01:35:00,
2013-03-09 17:50:00,41.0,24.7,30.10,ESE,112,1.6,-999.0,52,-99.99,,,0.00,Acu-Link.com,2013-03-10 01:50:00,
2013-03-09 18:05:00,39.2,23.5,30.10,NNE,22,0.0,-999.0,53,-99.99,,,0.00,Acu-Link.com,2013-03-10 02:05:00,
2013-03-09 18:20:00,37.4,23.2,30.10,NNE,22,0.0,-999.0,56,-99.99,,,0.00,Acu-Link.com,2013-03-10 02:20:00,
2013-03-09 18:35:00,37.4,24.0,30.11,NNE,22,0.0,-999.0,58,-99.99,,,0.00,Acu-Link.com,2013-03-10 02:35:00,
2013-03-09 18:50:00,35.6,23.1,30.13,NNE,22,0.0,-999.0,60,-99.99,,,0.00,Acu-Link.com,2013-03-10 02:50:00,
2013-03-09 19:05:00,35.6,23.5,30.13,NNE,22,0.0,-999.0,61,-99.99,,,0.00,Acu-Link.com,2013-03-10 03:05:00,
2013-03-09 19:21:00,35.6,24.3,30.13,NNE,22,0.0,-999.0,63,-99.99,,,0.00,Acu-Link.com,2013-03-10 03:21:00,
2013-03-09 19:36:00,35.6,25.4,30.12,NNW,337,0.0,-999.0,66,-99.99,,,0.00,Acu-Link.com,2013-03-10 03:36:00,
2013-03-09 19:51:00,33.8,24.7,30.12,WNW,292,0.0,-999.0,69,-99.99,,,0.00,Acu-Link.com,2013-03-10 03:51:00,
2013-03-09 20:06:00,33.8,24.7,30.13,NE,45,0.0,-999.0,69,-99.99,,,0.00,Acu-Link.com,2013-03-10 04:06:00,
2013-03-09 20:22:00,33.8,25.4,30.13,ENE,67,0.0,-999.0,71,-99.99,,,0.00,Acu-Link.com,2013-03-10 04:22:00,
2013-03-09 20:37:00,33.8,26.1,30.13,ESE,112,0.0,-999.0,73,-99.99,,,0.00,Acu-Link.com,2013-03-10 04:37:00,
2013-03-09 20:52:00,33.8,26.1,30.13,ESE,112,2.0,-999.0,73,-99.99,,,0.00,Acu-Link.com,2013-03-10 04:52:00,
2013-03-09 21:07:00,33.8,26.1,30.13,East,90,0.0,-999.0,73,-99.99,,,0.00,Acu-Link.com,2013-03-10 05:07:00,
2013-03-09 21:22:00,33.8,27.1,30.14,South,180,0.0,-999.0,76,-99.99,,,0.00,Acu-Link.com,2013-03-10 05:22:00,
2013-03-09 21:37:00,32.0,25.6,30.14,East,90,0.0,-999.0,77,-99.99,,,0.00,Acu-Link.com,2013-03-10 05:37:00,
2013-03-09 21:52:00,32.0,25.6,30.15,SE,135,0.0,-999.0,77,-99.99,,,0.00,Acu-Link.com,2013-03-10 05:52:00,
2013-03-09 22:07:00,32.0,25.6,30.15,NE,45,0.0,-999.0,77,-99.99,,,0.00,Acu-Link.com,2013-03-10 06:07:00,
2013-03-09 22:23:00,32.0,25.6,30.15,NE,45,0.0,-999.0,77,-99.99,,,0.00,Acu-Link.com,2013-03-10 06:23:00,
2013-03-09 22:38:00,32.0,25.9,30.16,WNW,292,0.0,-999.0,78,-99.99,,,0.00,Acu-Link.com,2013-03-10 06:38:00,
2013-03-09 22:53:00,32.0,25.6,30.15,ENE,67,0.0,-999.0,77,-99.99,,,0.00,Acu-Link.com,2013-03-10 06:53:00,
2013-03-09 23:08:00,32.0,25.9,30.16,WNW,292,0.0,-999.0,78,-99.99,,,0.00,Acu-Link.com,2013-03-10 07:08:00,
2013-03-09 23:23:00,32.0,26.5,30.15,West,270,0.0,-999.0,80,-99.99,,,0.00,Acu-Link.com,2013-03-10 07:23:00,
2013-03-09 23:38:00,30.2,24.8,30.15,NE,45,0.0,-999.0,80,-99.99,,,0.00,Acu-Link.com,2013-03-10 07:38:00,
2013-03-09 23:53:00,30.2,25.4,30.15,NE,45,0.0,-999.0,82,-99.99,,,0.00,Acu-Link.com,2013-03-10 07:53:00,